Decoded Metar for LECH (CALAMOCHA in SPAIN) (IATA:N/A) | Meteo·Mobile Aviation Weather
aviador You're here:

LECH Decoded Metar

CALAMOCHA in SPAIN
Report Time2020-02-18 22:00:00
UTC Time2020-02-18 22:32:51
Flight Rules mvfr MVFR
Wind130° at 03 kt
Visibility7000 m
Phenomena:N/A
Clouds:Scattered 055 Hf
Expected CloudBase > 400 ft AGL from Temp-Dew spread
CeilingNone
Temp10°C (ISA +1)
Dew Point09°C (94% RH)
AAT8.7°C
QNH1032 hPa
Density Alt2,579 ft
Elevation2,949 ft
Report Wrong Elevation
Raw Report
METAR LECH 182200Z AUTO 13003KT 080V190 7000 SCT055 10/09 Q1032=

Extra information for LECH:More info

Metar Taf Metar & Taf Last 4 Metars F.Rules Stats Wind Profile Meteogram Temp Stats Airport Information Weather charts Add Link Nearby VenuesMetar ALERT Operation Metar Decoded Social comments